Time;durP1;ratioP1;P1;durP2;ratioP2;P2;SDS_P1;SDS_P2;PMS_P1;PMS_P2;Temp;Humidity;BMP_temperature;BMP_pressure;BME280_temperature;BME280_humidity;BME280_pressure;Samples;Min_cycle;Max_cycle;Signal;HPM_P1;HPM_P2
2023/01/30 00:00:45;;;;;;;;;;;;;;;4.61;100.00;99622.75;5068730;28;19932;-74
2023/01/30 00:03:10;;;;;;;;;;;;;;;4.84;100.00;99604.06;5070920;28;19917;-73
2023/01/30 00:05:35;;;;;;;;;;;;;;;4.65;100.00;99602.34;5072103;28;19998;-74
2023/01/30 00:08:00;;;;;;;;;;;;;;;4.09;100.00;99601.34;5071649;28;19956;-74
2023/01/30 00:10:25;;;;;;;;;;;;;;;4.75;98.93;99614.28;5071909;28;19927;-73
2023/01/30 00:12:51;;;;;;;;;;;;;;;4.76;99.40;99631.28;5071652;28;19916;-74
2023/01/30 00:15:16;;;;;;;;;;;;;;;4.69;100.00;99624.47;5074359;28;19931;-73
2023/01/30 00:17:41;;;;;;;;;;;;;;;4.68;100.00;99610.84;5072341;28;19916;-72
2023/01/30 00:20:07;;;;;;;;;;;;;;;4.69;100.00;99604.06;5052458;28;19931;-72
2023/01/30 00:22:32;;;;;;;;;;;;;;;4.66;100.00;99627.03;5070007;28;20002;-72
2023/01/30 00:24:57;;;;;;;;;;;;;;;4.98;99.94;99645.75;5069976;28;19920;-73
2023/01/30 00:27:22;;;;;;;;;;;;;;;5.13;100.00;99646.63;5070093;28;19999;-74
2023/01/30 00:29:48;;;;;;;;;;;;;;;4.74;100.00;99633.81;5073077;28;20043;-73
2023/01/30 00:32:13;;;;;;;;;;;;;;;4.79;100.00;99644.06;5070400;28;19971;-74
2023/01/30 00:34:38;;;;;;;;;;;;;;;5.08;100.00;99648.31;5071159;28;19935;-74
2023/01/30 00:37:03;;;;;;;;;;;;;;;5.35;100.00;99653.44;5073758;28;19944;-73
2023/01/30 00:39:28;;;;;;;;;;;;;;;5.03;100.00;99625.34;5073732;28;19989;-74
2023/01/30 00:47:21;;;;;;;;;;;;;;;5.34;100.00;99631.31;5071384;28;20429;-74
2023/01/30 00:49:47;;;;;;;;;;;;;;;4.81;100.00;99599.81;5067650;28;19928;-75
2023/01/30 00:52:12;;;;;;;;;;;;;;;5.14;100.00;99602.38;5071020;28;19920;-74
2023/01/30 00:54:37;;;;;;;;;;;;;;;4.97;100.00;99594.72;5070530;28;19912;-74
2023/01/30 00:57:02;;;;;;;;;;;;;;;5.08;100.00;99597.28;5070921;28;19995;-73
2023/01/30 00:59:28;;;;;;;;;;;;;;;5.30;100.00;99609.19;5070192;28;20489;-75
2023/01/30 01:01:53;;;;;;;;;;;;;;;4.98;97.92;99592.16;5073240;28;19935;-74
2023/01/30 01:04:18;;;;;;;;;;;;;;;4.75;97.68;99579.41;5072085;28;20019;-74
2023/01/30 01:06:43;;;;;;;;;;;;;;;4.90;95.93;99593.84;5069159;28;19915;-74
2023/01/30 01:09:09;;;;;;;;;;;;;;;4.94;94.10;99610.03;5070839;28;19920;-75
2023/01/30 01:11:34;;;;;;;;;;;;;;;5.13;92.12;99613.44;5052396;28;20359;-74
2023/01/30 01:14:00;;;;;;;;;;;;;;;5.35;93.15;99617.69;5053195;28;19916;-75
2023/01/30 01:16:26;;;;;;;;;;;;;;;5.08;94.28;99607.47;5051137;28;19916;-74
2023/01/30 01:18:51;;;;;;;;;;;;;;;4.98;89.69;99612.59;5053774;28;19913;-74
2023/01/30 01:21:17;;;;;;;;;;;;;;;4.77;94.61;99598.13;5050879;28;19924;-74
2023/01/30 01:23:42;;;;;;;;;;;;;;;5.32;87.99;99621.97;5053511;28;19908;-74
2023/01/30 01:26:07;;;;;;;;;;;;;;;5.17;87.30;99613.44;5067947;28;19925;-74
2023/01/30 01:28:33;;;;;;;;;;;;;;;5.45;82.87;99619.38;5053882;28;19952;-74
2023/01/30 01:30:58;;;;;;;;;;;;;;;4.78;89.06;99609.16;5072115;28;19929;-75
2023/01/30 01:33:27;;;;;;;;;;;;;;;5.32;87.66;99611.75;5072529;28;20393;-74
2023/01/30 01:35:56;;;;;;;;;;;;;;;4.96;88.28;99611.72;5052696;28;19920;-74
2023/01/30 01:38:21;;;;;;;;;;;;;;;5.55;87.96;99609.16;5051938;28;19927;-75
2023/01/30 01:41:01;;;;;;;;;;;;;;;4.92;94.12;99570.88;5071409;28;19924;-75
2023/01/30 01:43:27;;;;;;;;;;;;;;;5.14;84.33;99598.13;5070849;28;20037;-75
2023/01/30 01:45:54;;;;;;;;;;;;;;;5.03;84.50;99580.25;5053968;28;20038;-75
2023/01/30 01:48:35;;;;;;;;;;;;;;;4.95;84.64;99587.06;5050965;28;19920;-75
2023/01/30 01:51:00;;;;;;;;;;;;;;;5.30;82.14;99586.19;5072639;28;19978;-75
2023/01/30 01:53:32;;;;;;;;;;;;;;;5.18;83.58;99581.94;5070614;28;19920;-75
2023/01/30 01:55:58;;;;;;;;;;;;;;;5.24;83.25;99586.19;5052907;28;19924;-75
2023/01/30 01:58:26;;;;;;;;;;;;;;;4.92;82.37;99576.00;5052566;28;20496;-75
2023/01/30 02:00:51;;;;;;;;;;;;;;;5.05;83.32;99590.47;5067798;28;20350;-74
2023/01/30 02:03:18;;;;;;;;;;;;;;;5.17;83.94;99594.72;5052603;28;19931;-75
2023/01/30 02:05:44;;;;;;;;;;;;;;;5.40;85.05;99610.84;5051778;28;19920;-74
2023/01/30 02:08:20;;;;;;;;;;;;;;;5.31;86.74;99593.00;5069441;28;19923;-74
2023/01/30 02:10:46;;;;;;;;;;;;;;;5.14;87.13;99584.50;5050504;28;19981;-75
2023/01/30 02:13:11;;;;;;;;;;;;;;;5.43;84.18;99605.75;5067376;28;20776;-74
2023/01/30 02:15:36;;;;;;;;;;;;;;;5.49;82.41;99616.81;5066777;28;19977;-73
2023/01/30 02:18:01;;;;;;;;;;;;;;;5.39;83.77;99611.72;5050057;28;20017;-75
2023/01/30 02:20:36;;;;;;;;;;;;;;;5.55;83.15;99614.25;5051579;28;19942;-75
2023/01/30 02:23:20;;;;;;;;;;;;;;;5.29;83.55;99593.84;5069938;28;20298;-75
2023/01/30 02:25:48;;;;;;;;;;;;;;;5.09;79.25;99578.56;5067446;28;20637;-75
2023/01/30 02:28:22;;;;;;;;;;;;;;;5.49;79.48;99602.34;5067426;28;20374;-75
2023/01/30 02:30:55;;;;;;;;;;;;;;;5.11;83.43;99592.16;5068343;28;20014;-75
2023/01/30 02:33:26;;;;;;;;;;;;;;;5.02;81.74;99587.94;5052955;28;19916;-74
2023/01/30 02:36:09;;;;;;;;;;;;;;;5.77;76.13;99626.13;5050598;28;19962;-74
2023/01/30 02:38:46;;;;;;;;;;;;;;;5.43;78.92;99599.81;5050372;28;20385;-74
2023/01/30 02:41:19;;;;;;;;;;;;;;;5.94;77.19;99640.56;5048903;28;20702;-75
2023/01/30 02:43:47;;;;;;;;;;;;;;;5.52;83.99;99592.13;5053576;28;19921;-75
2023/01/30 02:46:28;;;;;;;;;;;;;;;5.71;79.90;99581.84;5050992;28;20053;-75
2023/01/30 02:48:53;;;;;;;;;;;;;;;5.70;78.78;99590.38;5068621;28;19995;-75
2023/01/30 02:51:19;;;;;;;;;;;;;;;6.03;79.15;99612.44;5069377;28;20015;-74
2023/01/30 02:53:45;;;;;;;;;;;;;;;6.04;80.14;99621.81;5052352;28;19999;-74
2023/01/30 02:56:10;;;;;;;;;;;;;;;5.64;83.96;99584.41;5050898;28;20003;-74
2023/01/30 02:58:37;;;;;;;;;;;;;;;5.63;78.43;99602.31;5068674;28;19916;-74
2023/01/30 03:01:10;;;;;;;;;;;;;;;5.27;78.04;99604.09;5051932;28;19920;-75
2023/01/30 03:03:47;;;;;;;;;;;;;;;6.13;74.28;99652.47;5044371;28;19916;-75
2023/01/30 03:06:20;;;;;;;;;;;;;;;5.54;79.94;99607.44;5066307;28;19956;-74
2023/01/30 03:08:51;;;;;;;;;;;;;;;5.78;75.77;99634.66;5051463;28;20326;-74
2023/01/30 03:11:17;;;;;;;;;;;;;;;5.79;77.49;99618.44;5067902;28;20672;-75
2023/01/30 03:13:59;;;;;;;;;;;;;;;5.63;75.23;99631.28;5068902;28;19956;-74
2023/01/30 03:16:25;;;;;;;;;;;;;;;5.81;76.24;99638.03;5050916;28;19923;-75
2023/01/30 03:18:50;;;;;;;;;;;;;;;5.54;76.46;99603.19;5049530;28;19916;-75
2023/01/30 03:21:16;;;;;;;;;;;;;;;5.43;72.27;99618.53;5049926;28;19927;-74
2023/01/30 03:23:43;;;;;;;;;;;;;;;5.50;69.29;99649.19;5050495;28;19920;-75
2023/01/30 03:26:11;;;;;;;;;;;;;;;6.04;67.53;99673.81;5069254;28;19920;-75
2023/01/30 03:28:36;;;;;;;;;;;;;;;6.00;71.44;99667.00;5068087;28;19916;-74
2023/01/30 03:31:01;;;;;;;;;;;;;;;5.95;73.34;99671.25;5067203;28;19925;-73
2023/01/30 03:33:26;;;;;;;;;;;;;;;5.69;73.66;99637.22;5068993;28;19931;-75
2023/01/30 03:35:52;;;;;;;;;;;;;;;5.93;71.50;99654.19;5069174;28;19920;-74
2023/01/30 03:38:17;;;;;;;;;;;;;;;5.96;71.48;99682.34;5072049;28;19930;-75
2023/01/30 03:40:42;;;;;;;;;;;;;;;5.43;76.24;99656.84;5053192;28;19927;-74
2023/01/30 03:43:07;;;;;;;;;;;;;;;6.19;72.96;99683.13;5054247;28;19916;-75
2023/01/30 03:45:33;;;;;;;;;;;;;;;5.73;75.66;99674.72;5052741;28;20510;-75
2023/01/30 03:47:58;;;;;;;;;;;;;;;5.91;75.15;99690.00;5072398;28;20344;-75
2023/01/30 03:50:23;;;;;;;;;;;;;;;5.68;75.11;99676.41;5072498;28;19930;-75
2023/01/30 03:52:48;;;;;;;;;;;;;;;6.11;75.02;99687.41;5071832;28;19916;-74
2023/01/30 03:55:14;;;;;;;;;;;;;;;5.69;79.59;99665.34;5056644;28;19916;-75
2023/01/30 03:57:39;;;;;;;;;;;;;;;5.99;76.43;99646.53;5073981;28;19973;-73
2023/01/30 04:00:04;;;;;;;;;;;;;;;6.47;76.50;99683.03;5072764;28;20034;-74
2023/01/30 04:02:29;;;;;;;;;;;;;;;6.18;78.25;99653.31;5070270;28;20601;-75
2023/01/30 04:04:55;;;;;;;;;;;;;;;6.07;79.69;99649.94;5070016;28;19932;-73
2023/01/30 04:07:20;;;;;;;;;;;;;;;6.05;79.07;99641.44;5068447;28;19920;-74
2023/01/30 04:09:45;;;;;;;;;;;;;;;6.10;82.16;99618.41;5069737;28;20485;-75
2023/01/30 04:12:10;;;;;;;;;;;;;;;6.00;80.77;99602.25;5053065;28;19931;-75
2023/01/30 04:14:36;;;;;;;;;;;;;;;6.05;79.21;99621.81;5053531;28;19926;-74
2023/01/30 04:17:01;;;;;;;;;;;;;;;5.78;80.42;99621.88;5054740;28;19920;-73
2023/01/30 04:19:26;;;;;;;;;;;;;;;6.36;77.95;99641.28;5073323;28;20078;-75
2023/01/30 04:21:51;;;;;;;;;;;;;;;6.00;81.86;99620.16;5055012;28;19919;-75
2023/01/30 04:24:16;;;;;;;;;;;;;;;6.15;79.93;99612.38;5072657;28;19927;-74
2023/01/30 04:26:42;;;;;;;;;;;;;;;6.20;80.96;99597.91;5053372;28;19939;-76
2023/01/30 04:29:07;;;;;;;;;;;;;;;5.69;81.14;99615.06;5056346;28;19951;-75
2023/01/30 04:31:32;;;;;;;;;;;;;;;6.04;79.03;99639.72;5063376;28;19946;-75
2023/01/30 04:33:57;;;;;;;;;;;;;;;6.44;79.68;99621.66;5076349;28;20394;-76
2023/01/30 04:36:23;;;;;;;;;;;;;;;6.18;80.92;99635.41;5059171;28;20363;-75
2023/01/30 04:38:48;;;;;;;;;;;;;;;5.61;83.41;99615.09;5055050;28;19920;-73
2023/01/30 04:41:13;;;;;;;;;;;;;;;5.79;80.31;99627.00;5073603;28;19924;-73
2023/01/30 04:43:38;;;;;;;;;;;;;;;6.33;77.02;99637.03;5061348;28;19916;-74
2023/01/30 04:46:03;;;;;;;;;;;;;;;6.65;77.14;99659.91;5057958;28;19926;-77
2023/01/30 04:48:29;;;;;;;;;;;;;;;6.36;78.99;99633.63;5059026;28;19920;-76
2023/01/30 04:50:54;;;;;;;;;;;;;;;6.51;78.41;99661.69;5060525;28;20019;-78
2023/01/30 04:53:20;;;;;;;;;;;;;;;5.84;81.60;99627.81;5058459;28;19916;-76
2023/01/30 04:55:45;;;;;;;;;;;;;;;6.12;78.59;99643.09;5076950;28;20289;-77
2023/01/30 04:58:11;;;;;;;;;;;;;;;6.00;77.02;99653.38;5077096;28;19920;-75
2023/01/30 05:00:36;;;;;;;;;;;;;;;6.07;77.51;99667.84;5060331;28;19920;-76
2023/01/30 05:03:01;;;;;;;;;;;;;;;6.56;76.82;99685.53;5051573;28;20006;-75
2023/01/30 05:05:27;;;;;;;;;;;;;;;5.96;81.77;99647.41;5077216;28;20420;-76
2023/01/30 05:07:52;;;;;;;;;;;;;;;6.26;80.51;99641.34;5058494;28;20571;-75
2023/01/30 05:10:17;;;;;;;;;;;;;;;6.45;78.35;99671.94;5074626;28;19924;-75
2023/01/30 05:12:43;;;;;;;;;;;;;;;6.50;80.48;99665.13;5056016;28;19924;-77
2023/01/30 05:15:08;;;;;;;;;;;;;;;6.62;79.79;99659.94;5073708;28;19920;-76
2023/01/30 05:17:34;;;;;;;;;;;;;;;6.34;80.49;99637.88;5070776;28;19931;-76
2023/01/30 05:19:59;;;;;;;;;;;;;;;6.60;79.89;99661.66;5071348;28;19920;-76
2023/01/30 05:22:24;;;;;;;;;;;;;;;5.90;84.26;99621.81;5053376;28;19932;-75
2023/01/30 05:24:49;;;;;;;;;;;;;;;5.83;80.92;99633.78;5055755;28;19924;-76
2023/01/30 05:27:15;;;;;;;;;;;;;;;6.03;77.39;99646.53;5068356;28;20379;-74
2023/01/30 05:29:40;;;;;;;;;;;;;;;5.72;79.09;99647.44;5057058;28;19916;-77
2023/01/30 05:32:05;;;;;;;;;;;;;;;5.64;77.82;99667.91;5070101;28;19982;-75
2023/01/30 05:34:30;;;;;;;;;;;;;;;5.89;77.24;99678.09;5054379;28;20029;-76
2023/01/30 05:36:55;;;;;;;;;;;;;;;6.46;74.89;99709.47;5073168;28;20500;-74
2023/01/30 05:39:21;;;;;;;;;;;;;;;6.34;77.12;99701.84;5074869;28;20100;-74
2023/01/30 05:41:46;;;;;;;;;;;;;;;6.58;76.04;99719.66;5056705;28;20050;-76
2023/01/30 05:44:11;;;;;;;;;;;;;;;6.17;79.32;99696.78;5073259;28;20382;-76
2023/01/30 05:46:36;;;;;;;;;;;;;;;6.52;80.14;99709.44;5055427;28;20505;-76
2023/01/30 05:49:03;;;;;;;;;;;;;;;6.84;79.78;99714.44;5073311;28;19926;-74
2023/01/30 05:51:28;;;;;;;;;;;;;;;6.38;84.34;99670.28;5054825;28;20428;-76
2023/01/30 05:53:53;;;;;;;;;;;;;;;5.82;84.12;99655.09;5056430;28;19916;-75
2023/01/30 05:56:18;;;;;;;;;;;;;;;6.60;78.15;99694.91;5072677;28;19916;-76
2023/01/30 05:58:50;;;;;;;;;;;;;;;6.59;79.45;99705.16;5070212;28;20018;-76
2023/01/30 06:01:15;;;;;;;;;;;;;;;6.19;81.18;99692.53;5059285;28;19916;-76
2023/01/30 06:03:40;;;;;;;;;;;;;;;6.04;79.78;99695.97;5055157;28;19931;-76
2023/01/30 06:06:06;;;;;;;;;;;;;;;6.69;78.25;99727.28;5057378;28;19916;-74
2023/01/30 06:08:31;;;;;;;;;;;;;;;6.15;80.73;99713.84;5050426;28;19920;-75
2023/01/30 06:11:00;;;;;;;;;;;;;;;6.24;79.67;99716.38;5047581;28;20653;-76
2023/01/30 06:13:25;;;;;;;;;;;;;;;5.95;80.94;99716.44;5053574;28;19920;-75
2023/01/30 06:15:51;;;;;;;;;;;;;;;6.43;77.79;99746.16;5071363;28;19916;-75
2023/01/30 06:18:16;;;;;;;;;;;;;;;6.94;78.31;99763.88;5055107;28;19987;-75
2023/01/30 06:20:45;;;;;;;;;;;;;;;6.74;81.60;99745.19;5054709;28;19922;-76
2023/01/30 06:23:11;;;;;;;;;;;;;;;6.18;83.20;99704.47;5056613;28;20488;-74
2023/01/30 06:25:36;;;;;;;;;;;;;;;6.14;83.42;99713.00;5073119;28;19912;-75
2023/01/30 06:28:01;;;;;;;;;;;;;;;6.18;81.86;99730.03;5074662;28;19920;-74
2023/01/30 06:30:26;;;;;;;;;;;;;;;6.26;80.62;99738.53;5072501;28;20074;-73
2023/01/30 06:32:51;;;;;;;;;;;;;;;6.46;79.99;99755.53;5073434;28;19935;-73
2023/01/30 06:35:17;;;;;;;;;;;;;;;6.35;79.97;99776.03;5068565;28;19963;-73
2023/01/30 06:37:43;;;;;;;;;;;;;;;6.11;80.69;99779.47;5049694;28;19969;-72
2023/01/30 06:40:08;;;;;;;;;;;;;;;6.55;79.88;99816.94;5052204;28;19920;-73
2023/01/30 06:42:34;;;;;;;;;;;;;;;6.58;80.60;99811.78;5068956;28;19924;-72
2023/01/30 06:44:59;;;;;;;;;;;;;;;6.20;81.77;99799.06;5070972;28;19931;-73
2023/01/30 06:47:24;;;;;;;;;;;;;;;6.23;81.12;99807.59;5052036;28;20019;-73
2023/01/30 06:49:49;;;;;;;;;;;;;;;6.34;80.50;99837.41;5068998;28;19989;-73
2023/01/30 06:52:15;;;;;;;;;;;;;;;6.07;84.79;99854.50;5073546;28;19916;-73
2023/01/30 06:54:40;;;;;;;;;;;;;;;6.20;75.00;99984.09;5050602;28;19921;-73
2023/01/30 06:57:05;;;;;;;;;;;;;;;6.47;81.14;100024.19;5067492;28;19924;-72
2023/01/30 06:59:30;;;;;;;;;;;;;;;6.14;82.25;100027.56;5070998;28;19928;-73
2023/01/30 07:01:55;;;;;;;;;;;;;;;6.37;82.83;100042.94;5070132;28;19934;-73
2023/01/30 07:04:21;;;;;;;;;;;;;;;6.47;82.77;100031.03;5069142;28;19920;-73
2023/01/30 07:06:46;;;;;;;;;;;;;;;6.56;83.87;100038.69;5067090;28;19942;-73
2023/01/30 07:09:11;;;;;;;;;;;;;;;6.45;84.40;100025.91;5048061;28;20884;-73
2023/01/30 07:11:37;;;;;;;;;;;;;;;6.58;85.23;100026.75;5048032;28;20271;-74
2023/01/30 07:14:02;;;;;;;;;;;;;;;6.60;85.29;100031.91;5069617;28;21067;-73
2023/01/30 07:16:28;;;;;;;;;;;;;;;6.78;85.35;100031.91;5069257;28;20420;-72
2023/01/30 07:18:57;;;;;;;;;;;;;;;6.52;85.58;100016.50;5069068;28;20617;-74
2023/01/30 07:21:23;;;;;;;;;;;;;;;6.82;85.67;100025.06;5071498;28;20074;-72
2023/01/30 07:23:48;;;;;;;;;;;;;;;6.46;86.68;100006.28;5053659;28;19920;-72
2023/01/30 07:26:13;;;;;;;;;;;;;;;6.98;85.98;100025.91;5069650;28;19962;-74
2023/01/30 07:28:38;;;;;;;;;;;;;;;6.97;85.21;100004.56;5069650;28;19987;-73
2023/01/30 07:31:04;;;;;;;;;;;;;;;7.32;85.27;100027.56;5070623;28;19916;-72
2023/01/30 07:33:29;;;;;;;;;;;;;;;6.70;87.09;99984.94;5068218;28;20321;-73
2023/01/30 07:35:54;;;;;;;;;;;;;;;6.82;85.79;100004.56;5050750;28;20366;-73
2023/01/30 07:38:20;;;;;;;;;;;;;;;6.97;85.35;100002.00;5044381;28;20382;-72
2023/01/30 07:40:45;;;;;;;;;;;;;;;6.51;86.75;99973.88;5067850;28;19920;-73
2023/01/30 07:43:11;;;;;;;;;;;;;;;6.89;85.01;99999.47;5052917;28;19977;-72
2023/01/30 07:45:40;;;;;;;;;;;;;;;6.92;85.30;99996.03;5053658;28;19955;-72
2023/01/30 07:48:06;;;;;;;;;;;;;;;6.87;84.39;99988.38;5056006;28;19920;-73
2023/01/30 07:50:31;;;;;;;;;;;;;;;7.00;83.90;99999.47;5057163;28;19920;-74
2023/01/30 07:52:57;;;;;;;;;;;;;;;6.57;84.29;99967.88;5072091;28;20429;-73
2023/01/30 07:55:22;;;;;;;;;;;;;;;7.02;82.61;99994.31;5072582;28;20010;-75
2023/01/30 07:57:47;;;;;;;;;;;;;;;7.07;82.33;99998.59;5057474;28;19927;-74
2023/01/30 08:00:13;;;;;;;;;;;;;;;6.56;83.34;99961.06;5071027;28;19923;-74
2023/01/30 08:02:38;;;;;;;;;;;;;;;6.76;82.42;99973.88;5058204;28;19916;-74
2023/01/30 08:05:04;;;;;;;;;;;;;;;6.75;82.67;99978.16;5054461;28;20444;-75
2023/01/30 08:07:29;;;;;;;;;;;;;;;6.53;82.41;99961.09;5069665;28;20481;-73
2023/01/30 08:09:54;;;;;;;;;;;;;;;6.63;81.91;99945.72;5068682;28;19982;-73
2023/01/30 08:12:19;;;;;;;;;;;;;;;6.53;81.51;99951.69;5067009;28;19928;-75
2023/01/30 08:14:44;;;;;;;;;;;;;;;6.76;79.80;99982.41;5067840;28;19920;-74
2023/01/30 08:17:10;;;;;;;;;;;;;;;6.55;80.61;99955.13;5069581;28;19931;-74
2023/01/30 08:19:35;;;;;;;;;;;;;;;6.82;79.23;99979.84;5067478;28;19931;-73
2023/01/30 08:22:00;;;;;;;;;;;;;;;6.95;77.74;99987.50;5056423;28;19917;-73
2023/01/30 08:24:25;;;;;;;;;;;;;;;6.64;78.25;99952.56;5054015;28;20014;-73
2023/01/30 08:26:51;;;;;;;;;;;;;;;6.44;77.55;99936.34;5052784;28;20329;-74
2023/01/30 08:29:16;;;;;;;;;;;;;;;6.82;75.97;99973.84;5072304;28;19912;-74
2023/01/30 08:31:41;;;;;;;;;;;;;;;6.68;76.18;99953.38;5056679;28;19912;-73
2023/01/30 08:34:06;;;;;;;;;;;;;;;6.62;76.46;99964.50;5059020;28;19920;-74
2023/01/30 08:36:32;;;;;;;;;;;;;;;6.31;78.23;99939.75;5072743;28;19969;-74
2023/01/30 08:38:57;;;;;;;;;;;;;;;5.14;75.99;99944.50;5072532;28;20015;-74
2023/01/30 08:41:22;;;;;;;;;;;;;;;3.53;79.19;99994.94;5074172;28;19978;-75
2023/01/30 08:43:47;;;;;;;;;;;;;;;3.34;81.40;100027.78;5073881;28;19956;-73
2023/01/30 08:46:12;;;;;;;;;;;;;;;4.27;81.33;100130.91;5075053;28;19920;-72
2023/01/30 08:48:40;;;;;;;;;;;;;;;4.95;85.81;100192.03;5073313;28;19966;-73
2023/01/30 08:51:05;;;;;;;;;;;;;;;4.49;88.84;100148.13;5076259;28;19928;-73
2023/01/30 08:53:30;;;;;;;;;;;;;;;4.90;88.92;100160.47;5055766;28;19943;-73
2023/01/30 08:55:56;;;;;;;;;;;;;;;4.87;89.80;100172.34;5072781;28;19912;-73
2023/01/30 08:58:21;;;;;;;;;;;;;;;5.01;90.94;100158.88;5073428;28;19921;-72
2023/01/30 09:00:46;;;;;;;;;;;;;;;5.34;90.73;100149.81;5056163;28;20348;-73
2023/01/30 09:03:15;;;;;;;;;;;;;;;5.26;91.45;100130.16;5055800;28;20354;-73
2023/01/30 09:05:40;;;;;;;;;;;;;;;5.40;90.56;100126.00;5073845;28;20235;-72
2023/01/30 09:08:05;;;;;;;;;;;;;;;5.35;89.99;100097.00;5055003;28;19931;-72
2023/01/30 09:10:31;;;;;;;;;;;;;;;5.58;88.32;100115.03;5074151;28;19920;-73
2023/01/30 09:12:56;;;;;;;;;;;;;;;5.82;87.80;100099.84;5072899;28;19917;-73
2023/01/30 09:15:21;;;;;;;;;;;;;;;5.67;87.08;100079.31;5071408;28;20407;-72
2023/01/30 09:17:47;;;;;;;;;;;;;;;6.13;84.58;100105.13;5073309;28;19919;-73
2023/01/30 09:20:12;;;;;;;;;;;;;;;5.81;85.17;100077.66;5052155;28;19929;-73
2023/01/30 09:22:37;;;;;;;;;;;;;;;6.03;83.62;100093.16;5053871;28;19912;-73
2023/01/30 09:25:03;;;;;;;;;;;;;;;5.96;83.03;100076.09;5053463;28;20733;-73
2023/01/30 09:27:29;;;;;;;;;;;;;;;5.98;82.30;100082.06;5058275;28;19951;-74
2023/01/30 09:29:54;;;;;;;;;;;;;;;6.25;81.08;100100.06;5057132;28;19963;-74
2023/01/30 09:32:19;;;;;;;;;;;;;;;6.27;79.58;100077.91;5075286;28;19973;-73
2023/01/30 09:34:44;;;;;;;;;;;;;;;6.51;77.80;100076.22;5054083;28;20041;-74
2023/01/30 09:37:10;;;;;;;;;;;;;;;6.60;76.42;100066.00;5069967;28;19956;-74
2023/01/30 09:39:35;;;;;;;;;;;;;;;6.76;74.90;100066.03;5067972;28;20126;-74
2023/01/30 09:42:03;;;;;;;;;;;;;;;6.64;74.45;100037.00;5050199;28;19928;-74
2023/01/30 09:44:44;;;;;;;;;;;;;;;6.41;74.76;100013.97;5067326;28;20358;-73
2023/01/30 09:47:12;;;;;;;;;;;;;;;6.33;75.39;99984.09;5067091;28;19926;-73
2023/01/30 09:49:41;;;;;;;;;;;;;;;6.47;74.85;99990.06;5051923;28;19928;-73
2023/01/30 09:52:27;;;;;;;;;;;;;;;6.33;75.44;99971.31;5068971;28;20379;-74
2023/01/30 09:54:53;;;;;;;;;;;;;;;6.64;74.81;99965.34;5050209;28;19946;-74
2023/01/30 09:57:20;;;;;;;;;;;;;;;6.16;77.32;99938.91;5052350;28;19930;-74
2023/01/30 10:00:01;;;;;;;;;;;;;;;6.16;78.36;99933.78;5053425;28;19986;-73
2023/01/30 10:02:41;;;;;;;;;;;;;;;6.36;78.04;99920.13;5065956;28;19927;-74
2023/01/30 10:05:07;;;;;;;;;;;;;;;6.54;78.23;99902.22;5069178;28;19955;-73
2023/01/30 10:07:45;;;;;;;;;;;;;;;6.36;80.59;99887.72;5050312;28;19967;-73
2023/01/30 10:10:29;;;;;;;;;;;;;;;6.40;80.79;99886.03;5044057;28;19955;-73
2023/01/30 10:13:00;;;;;;;;;;;;;;;6.44;82.42;99864.72;5066654;28;19938;-73
2023/01/30 10:15:37;;;;;;;;;;;;;;;6.34;84.54;99857.88;5064880;28;19943;-74
2023/01/30 10:18:07;;;;;;;;;;;;;;;6.49;85.17;99847.63;5068054;28;19927;-74
2023/01/30 10:20:40;;;;;;;;;;;;;;;6.16;87.80;99822.94;5050018;28;20371;-74
2023/01/30 10:23:23;;;;;;;;;;;;;;;6.33;88.40;99822.94;5050814;28;19938;-73
2023/01/30 10:25:53;;;;;;;;;;;;;;;6.37;90.48;99802.47;5066702;28;20593;-73
2023/01/30 10:28:19;;;;;;;;;;;;;;;6.02;93.09;99784.59;5044604;28;20052;-73
2023/01/30 10:30:47;;;;;;;;;;;;;;;6.46;91.68;99781.97;5067124;28;20018;-74
2023/01/30 10:33:24;;;;;;;;;;;;;;;6.46;93.53;99766.63;5081224;27;19939;-73
2023/01/30 10:35:58;;;;;;;;;;;;;;;6.19;96.69;99747.06;5050062;28;19992;-73
2023/01/30 10:38:34;;;;;;;;;;;;;;;6.54;96.78;99769.13;5067731;28;19939;-73
2023/01/30 10:41:03;;;;;;;;;;;;;;;6.79;97.32;99758.81;5050565;28;20890;-74
2023/01/30 10:43:31;;;;;;;;;;;;;;;6.48;99.81;99712.88;5067703;28;19921;-73
2023/01/30 10:46:09;;;;;;;;;;;;;;;6.52;100.00;99699.19;5050473;28;19916;-73
2023/01/30 10:48:53;;;;;;;;;;;;;;;6.53;100.00;99706.03;5067526;28;19921;-73
2023/01/30 10:51:18;;;;;;;;;;;;;;;6.62;100.00;99675.28;5067524;28;19933;-73
2023/01/30 10:53:49;;;;;;;;;;;;;;;6.80;100.00;99658.97;5067701;28;19924;-74
2023/01/30 10:56:14;;;;;;;;;;;;;;;6.80;100.00;99641.06;5049277;28;19962;-73
2023/01/30 10:58:39;;;;;;;;;;;;;;;6.31;100.00;99617.44;5067952;28;19951;-74
2023/01/30 11:01:06;;;;;;;;;;;;;;;6.41;100.00;99619.97;5069728;28;19919;-74
2023/01/30 11:03:40;;;;;;;;;;;;;;;6.64;100.00;99637.75;5050515;28;19959;-74
2023/01/30 11:06:06;;;;;;;;;;;;;;;6.29;100.00;99604.66;5067607;28;20458;-74
2023/01/30 11:08:32;;;;;;;;;;;;;;;6.75;100.00;99631.69;5069316;28;20035;-73
2023/01/30 11:10:58;;;;;;;;;;;;;;;6.58;100.00;99614.72;5051522;28;20534;-73
2023/01/30 11:13:30;;;;;;;;;;;;;;;6.60;100.00;99618.13;5048722;28;19917;-73
2023/01/30 11:15:56;;;;;;;;;;;;;;;6.49;100.00;99602.00;5065986;28;19974;-72
2023/01/30 11:18:22;;;;;;;;;;;;;;;6.52;100.00;99585.78;5048577;28;19927;-73
2023/01/30 11:21:06;;;;;;;;;;;;;;;6.54;100.00;99559.31;5049239;28;20365;-72
2023/01/30 11:23:33;;;;;;;;;;;;;;;6.32;100.00;99547.50;5050518;28;20298;-72
2023/01/30 11:25:58;;;;;;;;;;;;;;;6.25;100.00;99562.91;5049265;28;20560;-72
2023/01/30 11:28:25;;;;;;;;;;;;;;;6.10;100.00;99573.22;5050211;28;20035;-72
2023/01/30 11:30:57;;;;;;;;;;;;;;;6.32;100.00;99598.66;5066421;28;19936;-71
2023/01/30 11:33:23;;;;;;;;;;;;;;;6.43;100.00;99607.13;5068778;28;19978;-72
2023/01/30 11:35:53;;;;;;;;;;;;;;;6.08;100.00;99606.44;5066813;28;19924;-72
2023/01/30 11:38:20;;;;;;;;;;;;;;;6.15;100.00;99597.06;5042803;28;19921;-72
2023/01/30 11:40:45;;;;;;;;;;;;;;;6.38;100.00;99614.84;5048501;28;19926;-71
2023/01/30 11:43:12;;;;;;;;;;;;;;;6.48;100.00;99621.63;5068558;28;19928;-73
2023/01/30 11:45:38;;;;;;;;;;;;;;;6.47;100.00;99624.19;5042662;28;19924;-72
2023/01/30 11:48:04;;;;;;;;;;;;;;;6.28;100.00;99634.50;5048517;28;19928;-73
2023/01/30 11:50:40;;;;;;;;;;;;;;;6.42;100.00;99637.00;5049285;28;19928;-73
2023/01/30 11:53:10;;;;;;;;;;;;;;;6.59;100.00;99634.38;5048768;28;19965;-73
2023/01/30 11:55:35;;;;;;;;;;;;;;;6.61;100.00;99636.91;5052019;28;19927;-72
2023/01/30 11:58:01;;;;;;;;;;;;;;;6.49;100.00;99619.91;5051884;28;20280;-73
2023/01/30 12:00:45;;;;;;;;;;;;;;;6.35;100.00;99601.22;5073788;28;19928;-72
2023/01/30 12:03:12;;;;;;;;;;;;;;;6.21;100.00;99653.28;5069662;28;20295;-72
2023/01/30 12:05:41;;;;;;;;;;;;;;;6.31;100.00;99669.44;5052984;28;19924;-72
2023/01/30 12:08:13;;;;;;;;;;;;;;;6.41;100.00;99634.44;5056688;28;19959;-72
2023/01/30 12:10:42;;;;;;;;;;;;;;;6.40;100.00;99627.63;5071116;28;20035;-73
2023/01/30 12:13:14;;;;;;;;;;;;;;;6.62;100.00;99636.91;5054550;28;19924;-71
2023/01/30 12:15:40;;;;;;;;;;;;;;;6.43;100.00;99602.03;5055589;28;19920;-73
2023/01/30 12:18:22;;;;;;;;;;;;;;;6.66;100.00;99613.00;5070478;28;19916;-72
2023/01/30 12:21:06;;;;;;;;;;;;;;;6.46;100.00;99595.19;5055206;28;19927;-73
2023/01/30 12:23:37;;;;;;;;;;;;;;;6.26;100.00;99590.19;5069148;28;20398;-73
2023/01/30 12:26:04;;;;;;;;;;;;;;;6.42;100.00;99605.44;5051408;28;20482;-72
2023/01/30 12:28:48;;;;;;;;;;;;;;;6.63;100.00;99613.00;5055303;28;19925;-73
2023/01/30 12:31:13;;;;;;;;;;;;;;;6.87;100.00;99616.28;5072356;28;19931;-72
2023/01/30 12:33:38;;;;;;;;;;;;;;;7.08;100.00;99631.47;5073862;28;20301;-73
2023/01/30 12:36:06;;;;;;;;;;;;;;;6.92;100.00;99624.75;5071546;28;19946;-73
2023/01/30 12:38:34;;;;;;;;;;;;;;;6.80;100.00;99622.28;5071662;28;20328;-73
2023/01/30 12:41:02;;;;;;;;;;;;;;;7.10;100.00;99604.13;5071265;28;19966;-73
2023/01/30 12:43:46;;;;;;;;;;;;;;;7.01;100.00;99604.22;5053547;28;19924;-72
2023/01/30 12:46:16;;;;;;;;;;;;;;;6.95;100.00;99586.31;5069906;28;19917;-73
2023/01/30 12:49:00;;;;;;;;;;;;;;;7.10;100.00;99563.16;5050381;28;20018;-73
2023/01/30 12:51:27;;;;;;;;;;;;;;;7.16;100.00;99553.72;5069673;28;19943;-73
2023/01/30 12:54:11;;;;;;;;;;;;;;;7.56;100.00;99537.94;5069721;28;19920;-71
2023/01/30 12:56:51;;;;;;;;;;;;;;;7.47;100.00;99496.16;5071277;28;19930;-72
2023/01/30 12:59:16;;;;;;;;;;;;;;;7.26;100.00;99498.97;5069429;28;19963;-72